sensor_id;sensor_type;location;lat;lon;timestamp;pressure;altitude;pressure_sealevel;temperature;humidity
70304;BME280;57712;48.752;11.348;2022-09-03T00:02:00;97304.53;;;13.84;70.92
70304;BME280;57712;48.752;11.348;2022-09-03T00:04:58;97316.13;;;13.79;73.12
70304;BME280;57712;48.752;11.348;2022-09-03T00:07:34;97318.22;;;13.75;75.61
70304;BME280;57712;48.752;11.348;2022-09-03T00:10:09;97303.25;;;13.76;73.17
70304;BME280;57712;48.752;11.348;2022-09-03T00:12:42;97312.63;;;13.79;74.97
70304;BME280;57712;48.752;11.348;2022-09-03T00:15:13;97311.53;;;13.76;74.21
70304;BME280;57712;48.752;11.348;2022-09-03T00:17:47;97307.22;;;13.75;73.37
70304;BME280;57712;48.752;11.348;2022-09-03T00:20:19;97303.44;;;13.82;73.07
70304;BME280;57712;48.752;11.348;2022-09-03T00:22:50;97292.31;;;13.85;71.65
70304;BME280;57712;48.752;11.348;2022-09-03T00:25:39;97289.53;;;13.98;71.23
70304;BME280;57712;48.752;11.348;2022-09-03T00:28:15;97297.34;;;14.00;70.90
70304;BME280;57712;48.752;11.348;2022-09-03T00:30:46;97297.97;;;14.04;70.04
70304;BME280;57712;48.752;11.348;2022-09-03T00:33:26;97305.38;;;14.07;71.28
70304;BME280;57712;48.752;11.348;2022-09-03T00:38:31;97306.53;;;14.19;72.38
70304;BME280;57712;48.752;11.348;2022-09-03T00:49:24;97295.44;;;14.31;69.95
70304;BME280;57712;48.752;11.348;2022-09-03T00:57:38;97305.63;;;14.43;70.21
70304;BME280;57712;48.752;11.348;2022-09-03T01:00:16;97309.84;;;14.35;70.82
70304;BME280;57712;48.752;11.348;2022-09-03T01:03:11;97315.56;;;14.41;70.28
70304;BME280;57712;48.752;11.348;2022-09-03T01:11:28;97290.00;;;14.40;71.13
70304;BME280;57712;48.752;11.348;2022-09-03T01:19:32;97298.06;;;14.35;70.54
70304;BME280;57712;48.752;11.348;2022-09-03T01:24:58;97304.09;;;14.42;70.95
70304;BME280;57712;48.752;11.348;2022-09-03T01:27:48;97299.34;;;14.43;71.01
70304;BME280;57712;48.752;11.348;2022-09-03T01:30:19;97302.44;;;14.45;70.27
70304;BME280;57712;48.752;11.348;2022-09-03T01:33:23;97310.38;;;14.43;72.49
70304;BME280;57712;48.752;11.348;2022-09-03T01:47:21;97305.31;;;14.41;70.15
70304;BME280;57712;48.752;11.348;2022-09-03T01:50:02;97290.00;;;14.40;70.28
70304;BME280;57712;48.752;11.348;2022-09-03T01:57:46;97285.25;;;14.41;69.86
70304;BME280;57712;48.752;11.348;2022-09-03T02:00:18;97287.44;;;14.46;69.55
70304;BME280;57712;48.752;11.348;2022-09-03T02:02:49;97286.75;;;14.55;70.44
70304;BME280;57712;48.752;11.348;2022-09-03T02:05:24;97291.31;;;14.49;69.89
70304;BME280;57712;48.752;11.348;2022-09-03T02:08:02;97297.47;;;14.53;69.16
70304;BME280;57712;48.752;11.348;2022-09-03T02:10:51;97283.47;;;14.47;69.40
70304;BME280;57712;48.752;11.348;2022-09-03T02:13:41;97291.81;;;14.56;69.35
70304;BME280;57712;48.752;11.348;2022-09-03T02:16:13;97292.41;;;14.51;69.18
70304;BME280;57712;48.752;11.348;2022-09-03T02:18:44;97295.25;;;14.48;69.67
70304;BME280;57712;48.752;11.348;2022-09-03T02:21:16;97287.66;;;14.52;69.23
70304;BME280;57712;48.752;11.348;2022-09-03T02:23:43;97281.16;;;14.46;69.45
70304;BME280;57712;48.752;11.348;2022-09-03T02:26:11;97279.38;;;14.52;69.58
70304;BME280;57712;48.752;11.348;2022-09-03T02:28:38;97292.72;;;14.53;69.19
70304;BME280;57712;48.752;11.348;2022-09-03T02:31:04;97290.50;;;14.48;69.02
70304;BME280;57712;48.752;11.348;2022-09-03T02:33:36;97287.34;;;14.50;68.71
70304;BME280;57712;48.752;11.348;2022-09-03T02:36:06;97290.50;;;14.48;70.12
70304;BME280;57712;48.752;11.348;2022-09-03T02:38:33;97296.53;;;14.56;70.76
70304;BME280;57712;48.752;11.348;2022-09-03T02:41:00;97281.69;;;14.53;68.92
70304;BME280;57712;48.752;11.348;2022-09-03T02:43:32;97281.16;;;14.46;69.61
70304;BME280;57712;48.752;11.348;2022-09-03T02:46:07;97285.16;;;14.44;69.33
70304;BME280;57712;48.752;11.348;2022-09-03T02:48:34;97288.00;;;14.41;69.91
70304;BME280;57712;48.752;11.348;2022-09-03T02:51:01;97297.50;;;14.40;69.47
70304;BME280;57712;48.752;11.348;2022-09-03T02:53:39;97293.00;;;14.33;68.98
70304;BME280;57712;48.752;11.348;2022-09-03T02:56:05;97292.56;;;14.35;69.75
70304;BME280;57712;48.752;11.348;2022-09-03T02:58:32;97297.44;;;14.31;69.27
70304;BME280;57712;48.752;11.348;2022-09-03T03:00:59;97296.66;;;14.30;69.11
70304;BME280;57712;48.752;11.348;2022-09-03T03:03:25;97288.19;;;14.25;69.21
70304;BME280;57712;48.752;11.348;2022-09-03T03:05:55;97276.16;;;14.31;69.79
70304;BME280;57712;48.752;11.348;2022-09-03T03:08:25;97286.47;;;14.18;69.41
70304;BME280;57712;48.752;11.348;2022-09-03T03:10:55;97285.25;;;14.19;69.39
70304;BME280;57712;48.752;11.348;2022-09-03T03:13:28;97278.78;;;14.13;69.75
70304;BME280;57712;48.752;11.348;2022-09-03T03:16:03;97276.91;;;14.10;69.38
70304;BME280;57712;48.752;11.348;2022-09-03T03:18:31;97271.72;;;14.12;69.76
70304;BME280;57712;48.752;11.348;2022-09-03T03:21:07;97276.25;;;14.06;69.61
70304;BME280;57712;48.752;11.348;2022-09-03T03:23:34;97274.88;;;14.01;70.15
70304;BME280;57712;48.752;11.348;2022-09-03T03:26:06;97281.66;;;13.88;70.31
70304;BME280;57712;48.752;11.348;2022-09-03T03:28:34;97284.72;;;13.90;70.76
70304;BME280;57712;48.752;11.348;2022-09-03T03:31:05;97275.69;;;13.89;70.24
70304;BME280;57712;48.752;11.348;2022-09-03T03:33:33;97283.19;;;13.89;70.57
70304;BME280;57712;48.752;11.348;2022-09-03T03:36:07;97282.50;;;13.84;70.59
70304;BME280;57712;48.752;11.348;2022-09-03T03:38:35;97279.81;;;13.72;70.85
70304;BME280;57712;48.752;11.348;2022-09-03T03:41:10;97281.09;;;13.80;71.04
70304;BME280;57712;48.752;11.348;2022-09-03T03:43:37;97291.41;;;13.67;71.58
70304;BME280;57712;48.752;11.348;2022-09-03T03:46:04;97289.72;;;13.69;70.90
70304;BME280;57712;48.752;11.348;2022-09-03T03:48:31;97301.28;;;13.64;71.53
70304;BME280;57712;48.752;11.348;2022-09-03T03:51:02;97299.88;;;13.60;72.07
70304;BME280;57712;48.752;11.348;2022-09-03T03:53:30;97300.00;;;13.56;71.83
70304;BME280;57712;48.752;11.348;2022-09-03T03:55:58;97292.63;;;13.53;72.33
70304;BME280;57712;48.752;11.348;2022-09-03T03:58:30;97294.84;;;13.45;72.30
70304;BME280;57712;48.752;11.348;2022-09-03T04:01:12;97289.34;;;13.45;72.42
70304;BME280;57712;48.752;11.348;2022-09-03T04:03:39;97298.91;;;13.41;72.35
70304;BME280;57712;48.752;11.348;2022-09-03T04:06:08;97291.31;;;13.32;72.78
70304;BME280;57712;48.752;11.348;2022-09-03T04:08:37;97292.53;;;13.31;72.92
70304;BME280;57712;48.752;11.348;2022-09-03T04:11:06;97289.91;;;13.27;72.96
70304;BME280;57712;48.752;11.348;2022-09-03T04:13:36;97292.88;;;13.20;74.49
70304;BME280;57712;48.752;11.348;2022-09-03T04:18:32;97297.06;;;13.25;73.19
70304;BME280;57712;48.752;11.348;2022-09-03T04:21:03;97308.41;;;13.27;73.58
70304;BME280;57712;48.752;11.348;2022-09-03T04:23:31;97312.81;;;13.24;73.99
70304;BME280;57712;48.752;11.348;2022-09-03T04:25:58;97314.53;;;13.18;77.19
70304;BME280;57712;48.752;11.348;2022-09-03T04:28:25;97317.84;;;13.13;75.38
70304;BME280;57712;48.752;11.348;2022-09-03T04:30:52;97307.84;;;13.19;74.05
70304;BME280;57712;48.752;11.348;2022-09-03T04:33:19;97315.22;;;13.22;75.47
70304;BME280;57712;48.752;11.348;2022-09-03T04:35:46;97320.63;;;13.26;74.73
70304;BME280;57712;48.752;11.348;2022-09-03T04:38:12;97320.81;;;13.32;73.47
70304;BME280;57712;48.752;11.348;2022-09-03T04:40:39;97303.00;;;13.36;72.80
70304;BME280;57712;48.752;11.348;2022-09-03T04:43:05;97311.47;;;13.42;72.71
70304;BME280;57712;48.752;11.348;2022-09-03T04:45:32;97313.75;;;13.43;73.91
70304;BME280;57712;48.752;11.348;2022-09-03T04:48:02;97316.63;;;13.52;73.89
70304;BME280;57712;48.752;11.348;2022-09-03T04:50:31;97312.78;;;13.50;73.35
70304;BME280;57712;48.752;11.348;2022-09-03T04:53:03;97318.91;;;13.54;72.75
70304;BME280;57712;48.752;11.348;2022-09-03T04:55:35;97319.69;;;13.54;73.08
70304;BME280;57712;48.752;11.348;2022-09-03T04:58:03;97325.09;;;13.58;72.54
70304;BME280;57712;48.752;11.348;2022-09-03T05:00:29;97329.84;;;13.57;72.86
70304;BME280;57712;48.752;11.348;2022-09-03T05:02:59;97329.50;;;13.68;72.33
70304;BME280;57712;48.752;11.348;2022-09-03T05:05:26;97329.59;;;13.65;72.93
70304;BME280;57712;48.752;11.348;2022-09-03T05:07:57;97331.66;;;13.73;72.26
70304;BME280;57712;48.752;11.348;2022-09-03T05:10:23;97334.50;;;13.82;71.96
70304;BME280;57712;48.752;11.348;2022-09-03T05:13:00;97344.13;;;13.78;71.86
70304;BME280;57712;48.752;11.348;2022-09-03T05:15:29;97349.44;;;14.07;72.00
70304;BME280;57712;48.752;11.348;2022-09-03T05:17:58;97361.22;;;14.07;72.09
70304;BME280;57712;48.752;11.348;2022-09-03T05:20:25;97355.28;;;14.09;71.90
70304;BME280;57712;48.752;11.348;2022-09-03T05:22:51;97357.00;;;14.15;73.06
70304;BME280;57712;48.752;11.348;2022-09-03T05:25:18;97354.44;;;14.21;74.29
70304;BME280;57712;48.752;11.348;2022-09-03T05:27:45;97358.66;;;14.13;76.29
70304;BME280;57712;48.752;11.348;2022-09-03T05:30:12;97362.75;;;14.08;78.34
70304;BME280;57712;48.752;11.348;2022-09-03T05:32:40;97361.53;;;14.09;77.33
70304;BME280;57712;48.752;11.348;2022-09-03T05:35:07;97362.53;;;14.03;81.51
70304;BME280;57712;48.752;11.348;2022-09-03T05:37:36;97357.97;;;13.87;80.70
70304;BME280;57712;48.752;11.348;2022-09-03T05:40:03;97368.09;;;13.90;82.61
70304;BME280;57712;48.752;11.348;2022-09-03T05:42:30;97359.88;;;13.77;83.40
70304;BME280;57712;48.752;11.348;2022-09-03T05:44:58;97362.63;;;13.77;85.53
70304;BME280;57712;48.752;11.348;2022-09-03T05:47:25;97362.19;;;13.66;84.03
70304;BME280;57712;48.752;11.348;2022-09-03T05:49:52;97366.59;;;13.51;85.93
70304;BME280;57712;48.752;11.348;2022-09-03T05:52:18;97356.25;;;13.42;88.29
70304;BME280;57712;48.752;11.348;2022-09-03T05:54:46;97344.16;;;13.27;87.50
70304;BME280;57712;48.752;11.348;2022-09-03T05:57:13;97346.53;;;13.12;85.87
70304;BME280;57712;48.752;11.348;2022-09-03T05:59:40;97338.53;;;13.05;86.39
70304;BME280;57712;48.752;11.348;2022-09-03T06:02:06;97346.66;;;13.09;88.64
70304;BME280;57712;48.752;11.348;2022-09-03T06:04:33;97347.97;;;13.17;91.09
70304;BME280;57712;48.752;11.348;2022-09-03T06:06:59;97350.56;;;13.24;91.95
70304;BME280;57712;48.752;11.348;2022-09-03T06:09:26;97356.47;;;13.22;91.10
70304;BME280;57712;48.752;11.348;2022-09-03T06:11:52;97347.34;;;13.25;92.25
70304;BME280;57712;48.752;11.348;2022-09-03T06:14:22;97347.03;;;13.36;93.41
70304;BME280;57712;48.752;11.348;2022-09-03T06:16:49;97351.19;;;13.53;93.45
70304;BME280;57712;48.752;11.348;2022-09-03T06:19:17;97358.56;;;13.44;89.00
70304;BME280;57712;48.752;11.348;2022-09-03T06:21:45;97362.97;;;13.54;88.84
70304;BME280;57712;48.752;11.348;2022-09-03T06:24:18;97360.97;;;13.54;87.51
70304;BME280;57712;48.752;11.348;2022-09-03T06:26:46;97362.41;;;13.59;88.26
70304;BME280;57712;48.752;11.348;2022-09-03T06:29:14;97359.09;;;13.64;85.62
70304;BME280;57712;48.752;11.348;2022-09-03T06:31:41;97360.09;;;13.70;85.34
70304;BME280;57712;48.752;11.348;2022-09-03T06:34:08;97370.41;;;13.92;84.93
70304;BME280;57712;48.752;11.348;2022-09-03T06:36:34;97368.38;;;14.05;85.47
70304;BME280;57712;48.752;11.348;2022-09-03T06:39:02;97368.13;;;14.12;83.21
70304;BME280;57712;48.752;11.348;2022-09-03T06:41:30;97367.00;;;14.22;83.64
70304;BME280;57712;48.752;11.348;2022-09-03T06:44:01;97366.31;;;14.31;83.87
70304;BME280;57712;48.752;11.348;2022-09-03T06:46:39;97367.16;;;14.40;82.10
70304;BME280;57712;48.752;11.348;2022-09-03T06:49:10;97373.34;;;14.44;80.85
70304;BME280;57712;48.752;11.348;2022-09-03T06:51:37;97375.97;;;14.48;80.95
70304;BME280;57712;48.752;11.348;2022-09-03T06:54:06;97383.34;;;14.51;78.95
70304;BME280;57712;48.752;11.348;2022-09-03T06:56:34;97380.78;;;14.57;81.24
70304;BME280;57712;48.752;11.348;2022-09-03T06:59:07;97374.63;;;14.53;80.40
70304;BME280;57712;48.752;11.348;2022-09-03T07:01:35;97386.03;;;14.86;79.84
70304;BME280;57712;48.752;11.348;2022-09-03T07:04:07;97387.56;;;14.87;78.50
70304;BME280;57712;48.752;11.348;2022-09-03T07:06:38;97387.00;;;14.92;81.66
70304;BME280;57712;48.752;11.348;2022-09-03T07:09:07;97388.59;;;15.02;80.09
70304;BME280;57712;48.752;11.348;2022-09-03T07:11:34;97387.50;;;14.99;80.13
70304;BME280;57712;48.752;11.348;2022-09-03T07:14:03;97391.28;;;15.15;80.87
70304;BME280;57712;48.752;11.348;2022-09-03T07:16:35;97393.97;;;15.06;79.55
70304;BME280;57712;48.752;11.348;2022-09-03T07:19:03;97387.03;;;15.23;81.58
70304;BME280;57712;48.752;11.348;2022-09-03T07:21:31;97386.69;;;15.21;78.26
70304;BME280;57712;48.752;11.348;2022-09-03T07:23:59;97376.97;;;15.38;77.38
70304;BME280;57712;48.752;11.348;2022-09-03T07:26:30;97370.53;;;15.41;79.32
70304;BME280;57712;48.752;11.348;2022-09-03T07:28:58;97369.72;;;15.63;79.01
70304;BME280;57712;48.752;11.348;2022-09-03T07:31:35;97358.78;;;15.59;78.74
70304;BME280;57712;48.752;11.348;2022-09-03T07:34:05;97357.13;;;15.62;75.33
70304;BME280;57712;48.752;11.348;2022-09-03T07:36:40;97364.19;;;15.63;79.66
70304;BME280;57712;48.752;11.348;2022-09-03T07:39:09;97361.50;;;15.90;77.33
70304;BME280;57712;48.752;11.348;2022-09-03T07:41:40;97361.53;;;15.99;78.26
70304;BME280;57712;48.752;11.348;2022-09-03T07:44:12;97364.28;;;15.99;77.00
70304;BME280;57712;48.752;11.348;2022-09-03T07:46:40;97371.31;;;15.91;78.00
70304;BME280;57712;48.752;11.348;2022-09-03T07:49:10;97371.66;;;16.11;76.95
70304;BME280;57712;48.752;11.348;2022-09-03T07:51:37;97358.91;;;15.96;77.05
70304;BME280;57712;48.752;11.348;2022-09-03T07:54:06;97360.63;;;16.21;75.83
70304;BME280;57712;48.752;11.348;2022-09-03T07:56:35;97366.47;;;16.23;77.10
70304;BME280;57712;48.752;11.348;2022-09-03T07:59:03;97358.03;;;16.17;77.04
70304;BME280;57712;48.752;11.348;2022-09-03T08:01:31;97361.09;;;16.19;76.40
70304;BME280;57712;48.752;11.348;2022-09-03T08:03:58;97364.00;;;16.43;74.86
70304;BME280;57712;48.752;11.348;2022-09-03T08:06:27;97365.53;;;16.35;73.90
70304;BME280;57712;48.752;11.348;2022-09-03T08:08:58;97368.31;;;16.53;74.55
70304;BME280;57712;48.752;11.348;2022-09-03T08:11:31;97376.31;;;16.51;72.98
70304;BME280;57712;48.752;11.348;2022-09-03T08:14:01;97381.84;;;16.69;72.30
70304;BME280;57712;48.752;11.348;2022-09-03T08:16:30;97389.03;;;16.85;72.53
70304;BME280;57712;48.752;11.348;2022-09-03T08:18:58;97389.69;;;16.80;74.63
70304;BME280;57712;48.752;11.348;2022-09-03T08:21:26;97388.44;;;16.63;74.39
70304;BME280;57712;48.752;11.348;2022-09-03T08:23:54;97395.50;;;16.55;73.68
70304;BME280;57712;48.752;11.348;2022-09-03T08:26:33;97403.78;;;16.55;73.26
70304;BME280;57712;48.752;11.348;2022-09-03T08:29:00;97401.31;;;16.57;72.40
70304;BME280;57712;48.752;11.348;2022-09-03T08:31:27;97398.88;;;16.86;71.86
70304;BME280;57712;48.752;11.348;2022-09-03T08:33:56;97402.59;;;16.83;72.42
70304;BME280;57712;48.752;11.348;2022-09-03T08:36:28;97405.31;;;17.11;74.26
70304;BME280;57712;48.752;11.348;2022-09-03T08:38:57;97398.03;;;17.31;73.52
70304;BME280;57712;48.752;11.348;2022-09-03T08:41:38;97399.03;;;16.92;71.58
70304;BME280;57712;48.752;11.348;2022-09-03T08:44:45;97396.25;;;17.01;71.77
70304;BME280;57712;48.752;11.348;2022-09-03T08:47:26;97397.81;;;16.93;72.10
70304;BME280;57712;48.752;11.348;2022-09-03T08:52:45;97394.28;;;16.74;72.82
70304;BME280;57712;48.752;11.348;2022-09-03T08:55:33;97388.59;;;16.78;72.49
70304;BME280;57712;48.752;11.348;2022-09-03T08:58:07;97396.25;;;17.01;73.21
70304;BME280;57712;48.752;11.348;2022-09-03T09:03:33;97390.19;;;17.30;72.58
70304;BME280;57712;48.752;11.348;2022-09-03T09:06:19;97385.47;;;17.12;70.52
70304;BME280;57712;48.752;11.348;2022-09-03T09:11:45;97382.06;;;17.17;69.98
70304;BME280;57712;48.752;11.348;2022-09-03T09:14:32;97373.78;;;17.08;70.45
70304;BME280;57712;48.752;11.348;2022-09-03T09:22:39;97367.97;;;17.81;72.60
70304;BME280;57712;48.752;11.348;2022-09-03T09:25:21;97377.47;;;17.89;69.56
70304;BME280;57712;48.752;11.348;2022-09-03T09:28:01;97388.50;;;18.46;70.06
70304;BME280;57712;48.752;11.348;2022-09-03T09:30:30;97379.44;;;18.61;64.76
70304;BME280;57712;48.752;11.348;2022-09-03T09:33:04;97369.25;;;18.67;68.00
70304;BME280;57712;48.752;11.348;2022-09-03T09:35:30;97360.97;;;18.58;64.91
70304;BME280;57712;48.752;11.348;2022-09-03T09:37:57;97353.47;;;19.02;67.68
70304;BME280;57712;48.752;11.348;2022-09-03T09:45:51;97362.16;;;19.40;63.49
70304;BME280;57712;48.752;11.348;2022-09-03T09:48:27;97357.16;;;19.44;62.72
70304;BME280;57712;48.752;11.348;2022-09-03T09:51:23;97349.97;;;19.37;62.72
70304;BME280;57712;48.752;11.348;2022-09-03T09:56:27;97373.91;;;19.99;60.99
70304;BME280;57712;48.752;11.348;2022-09-03T09:59:21;97375.00;;;19.87;61.88
70304;BME280;57712;48.752;11.348;2022-09-03T10:01:47;97364.22;;;19.74;62.17
70304;BME280;57712;48.752;11.348;2022-09-03T10:04:21;97374.19;;;20.01;62.45
70304;BME280;57712;48.752;11.348;2022-09-03T10:06:56;97367.81;;;20.15;62.70
70304;BME280;57712;48.752;11.348;2022-09-03T10:09:27;97367.53;;;20.13;64.28
70304;BME280;57712;48.752;11.348;2022-09-03T10:20:47;97356.19;;;20.58;60.71
70304;BME280;57712;48.752;11.348;2022-09-03T10:23:24;97356.16;;;21.36;59.52
70304;BME280;57712;48.752;11.348;2022-09-03T10:26:01;97359.41;;;21.60;60.98
70304;BME280;57712;48.752;11.348;2022-09-03T10:28:40;97362.28;;;21.40;59.86
70304;BME280;57712;48.752;11.348;2022-09-03T10:31:19;97359.47;;;20.56;62.19
70304;BME280;57712;48.752;11.348;2022-09-03T10:34:13;97360.91;;;20.98;63.11
70304;BME280;57712;48.752;11.348;2022-09-03T10:37:01;97360.13;;;20.31;62.49
70304;BME280;57712;48.752;11.348;2022-09-03T10:53:41;97354.66;;;19.60;69.54
70304;BME280;57712;48.752;11.348;2022-09-03T10:56:13;97356.41;;;20.13;71.56
70304;BME280;57712;48.752;11.348;2022-09-03T11:07:04;97347.91;;;20.23;66.04
70304;BME280;57712;48.752;11.348;2022-09-03T11:09:56;97347.00;;;20.52;65.71
70304;BME280;57712;48.752;11.348;2022-09-03T11:12:36;97342.81;;;20.41;64.72
70304;BME280;57712;48.752;11.348;2022-09-03T11:15:09;97342.03;;;20.41;66.60
70304;BME280;57712;48.752;11.348;2022-09-03T11:20:34;97342.63;;;20.04;68.25
70304;BME280;57712;48.752;11.348;2022-09-03T11:23:03;97333.31;;;20.07;69.30
70304;BME280;57712;48.752;11.348;2022-09-03T11:25:40;97329.25;;;19.88;69.70
70304;BME280;57712;48.752;11.348;2022-09-03T11:28:25;97334.28;;;19.84;69.53
70304;BME280;57712;48.752;11.348;2022-09-03T11:31:08;97334.00;;;20.02;69.21
70304;BME280;57712;48.752;11.348;2022-09-03T11:33:48;97338.31;;;19.83;71.07
70304;BME280;57712;48.752;11.348;2022-09-03T11:36:42;97333.31;;;20.07;70.76
70304;BME280;57712;48.752;11.348;2022-09-03T11:42:00;97336.31;;;20.04;70.42
70304;BME280;57712;48.752;11.348;2022-09-03T11:44:42;97329.13;;;20.17;69.05
70304;BME280;57712;48.752;11.348;2022-09-03T11:47:42;97335.41;;;20.33;68.32
70304;BME280;57712;48.752;11.348;2022-09-03T11:50:24;97345.94;;;20.29;67.36
70304;BME280;57712;48.752;11.348;2022-09-03T11:53:38;97343.03;;;19.97;68.52
70304;BME280;57712;48.752;11.348;2022-09-03T11:58:23;97328.84;;;20.15;69.48
70304;BME280;57712;48.752;11.348;2022-09-03T12:00:51;97320.50;;;20.15;68.80
70304;BME280;57712;48.752;11.348;2022-09-03T12:03:24;97322.47;;;20.76;68.14
70304;BME280;57712;48.752;11.348;2022-09-03T12:11:40;97309.84;;;21.12;65.86
70304;BME280;57712;48.752;11.348;2022-09-03T12:14:21;97306.88;;;21.21;64.50
70304;BME280;57712;48.752;11.348;2022-09-03T12:19:44;97292.53;;;21.28;65.63
70304;BME280;57712;48.752;11.348;2022-09-03T12:22:15;97289.41;;;21.21;64.92
70304;BME280;57712;48.752;11.348;2022-09-03T12:24:43;97289.53;;;22.34;61.71
70304;BME280;57712;48.752;11.348;2022-09-03T12:27:24;97283.06;;;22.93;60.12
70304;BME280;57712;48.752;11.348;2022-09-03T12:29:57;97271.25;;;22.39;61.76
70304;BME280;57712;48.752;11.348;2022-09-03T12:32:28;97279.75;;;22.89;61.01
70304;BME280;57712;48.752;11.348;2022-09-03T12:35:08;97283.25;;;22.62;60.35
70304;BME280;57712;48.752;11.348;2022-09-03T12:37:35;97290.00;;;22.22;61.89
70304;BME280;57712;48.752;11.348;2022-09-03T12:40:26;97293.97;;;22.04;62.75
70304;BME280;57712;48.752;11.348;2022-09-03T12:42:55;97309.53;;;22.27;61.82
70304;BME280;57712;48.752;11.348;2022-09-03T12:45:56;97312.38;;;21.84;62.98
70304;BME280;57712;48.752;11.348;2022-09-03T12:48:46;97314.97;;;21.94;62.87
70304;BME280;57712;48.752;11.348;2022-09-03T12:51:40;97312.81;;;22.14;61.72
70304;BME280;57712;48.752;11.348;2022-09-03T12:54:20;97324.66;;;22.04;63.98
70304;BME280;57712;48.752;11.348;2022-09-03T12:56:53;97318.34;;;21.66;63.23
70304;BME280;57712;48.752;11.348;2022-09-03T12:59:22;97322.00;;;21.41;63.86
70304;BME280;57712;48.752;11.348;2022-09-03T13:01:53;97317.78;;;21.51;65.49
70304;BME280;57712;48.752;11.348;2022-09-03T13:04:24;97308.03;;;21.35;64.89
70304;BME280;57712;48.752;11.348;2022-09-03T13:07:03;97308.22;;;21.63;63.79
70304;BME280;57712;48.752;11.348;2022-09-03T13:09:35;97298.81;;;22.09;64.49
70304;BME280;57712;48.752;11.348;2022-09-03T13:12:03;97301.69;;;22.26;62.92
70304;BME280;57712;48.752;11.348;2022-09-03T13:14:49;97287.56;;;22.80;63.86
70304;BME280;57712;48.752;11.348;2022-09-03T13:17:28;97287.56;;;22.68;63.31
70304;BME280;57712;48.752;11.348;2022-09-03T13:20:14;97278.47;;;23.01;61.13
70304;BME280;57712;48.752;11.348;2022-09-03T13:30:49;97281.75;;;22.72;60.73
70304;BME280;57712;48.752;11.348;2022-09-03T13:33:23;97289.31;;;22.43;62.44
70304;BME280;57712;48.752;11.348;2022-09-03T13:38:37;97286.53;;;22.55;63.59
70304;BME280;57712;48.752;11.348;2022-09-03T13:41:40;97293.13;;;22.46;63.02
70304;BME280;57712;48.752;11.348;2022-09-03T13:44:09;97295.13;;;22.34;64.08
70304;BME280;57712;48.752;11.348;2022-09-03T13:47:03;97303.00;;;22.41;62.98
70304;BME280;57712;48.752;11.348;2022-09-03T13:49:43;97311.06;;;22.28;63.77
70304;BME280;57712;48.752;11.348;2022-09-03T13:52:38;97311.06;;;22.28;64.82
70304;BME280;57712;48.752;11.348;2022-09-03T13:55:14;97306.25;;;22.29;64.06
70304;BME280;57712;48.752;11.348;2022-09-03T13:58:00;97310.28;;;22.16;62.73
70304;BME280;57712;48.752;11.348;2022-09-03T14:00:45;97307.56;;;22.33;62.78
70304;BME280;57712;48.752;11.348;2022-09-03T14:08:51;97309.78;;;21.75;63.57
70304;BME280;57712;48.752;11.348;2022-09-03T14:16:53;97321.25;;;21.14;66.87
70304;BME280;57712;48.752;11.348;2022-09-03T14:19:51;97323.19;;;21.02;66.56
70304;BME280;57712;48.752;11.348;2022-09-03T14:25:22;97332.63;;;21.11;68.54
70304;BME280;57712;48.752;11.348;2022-09-03T14:27:49;97318.78;;;21.16;69.25
70304;BME280;57712;48.752;11.348;2022-09-03T14:33:01;97310.13;;;21.14;70.67
70304;BME280;57712;48.752;11.348;2022-09-03T14:35:37;97303.84;;;20.88;69.56
70304;BME280;57712;48.752;11.348;2022-09-03T14:41:10;97293.69;;;20.85;72.31
70304;BME280;57712;48.752;11.348;2022-09-03T14:49:54;97302.00;;;20.33;78.73
70304;BME280;57712;48.752;11.348;2022-09-03T15:01:27;97272.50;;;18.89;76.39
70304;BME280;57712;48.752;11.348;2022-09-03T15:04:32;97275.38;;;19.30;80.97
70304;BME280;57712;48.752;11.348;2022-09-03T15:09:41;97261.56;;;19.36;79.58
70304;BME280;57712;48.752;11.348;2022-09-03T15:12:33;97259.50;;;19.16;76.69
70304;BME280;57712;48.752;11.348;2022-09-03T15:15:07;97261.44;;;19.10;76.24
70304;BME280;57712;48.752;11.348;2022-09-03T15:28:53;97268.38;;;18.99;77.13
70304;BME280;57712;48.752;11.348;2022-09-03T15:36:51;97271.53;;;19.42;77.07
70304;BME280;57712;48.752;11.348;2022-09-03T15:39:38;97283.03;;;19.35;75.39
70304;BME280;57712;48.752;11.348;2022-09-03T15:42:13;97289.00;;;19.28;75.85
70304;BME280;57712;48.752;11.348;2022-09-03T15:44:48;97287.75;;;19.29;75.50
70304;BME280;57712;48.752;11.348;2022-09-03T15:47:33;97295.91;;;19.18;76.31
70304;BME280;57712;48.752;11.348;2022-09-03T15:56:12;97285.91;;;19.26;75.04
70304;BME280;57712;48.752;11.348;2022-09-03T16:01:27;97288.81;;;19.17;75.31
70304;BME280;57712;48.752;11.348;2022-09-03T16:04:11;97300.88;;;19.14;75.08
70304;BME280;57712;48.752;11.348;2022-09-03T16:06:55;97302.69;;;19.17;76.62
70304;BME280;57712;48.752;11.348;2022-09-03T16:12:38;97310.19;;;19.11;78.70
70304;BME280;57712;48.752;11.348;2022-09-03T16:15:11;97305.69;;;19.13;80.15
70304;BME280;57712;48.752;11.348;2022-09-03T16:17:54;97320.44;;;18.90;82.18
70304;BME280;57712;48.752;11.348;2022-09-03T16:20:33;97320.84;;;18.97;83.86
70304;BME280;57712;48.752;11.348;2022-09-03T16:28:26;97324.84;;;18.82;83.43
70304;BME280;57712;48.752;11.348;2022-09-03T16:31:01;97324.75;;;18.91;84.08
70304;BME280;57712;48.752;11.348;2022-09-03T16:36:24;97331.31;;;18.64;87.39
70304;BME280;57712;48.752;11.348;2022-09-03T16:39:08;97322.97;;;18.64;87.27
70304;BME280;57712;48.752;11.348;2022-09-03T16:44:49;97328.66;;;18.69;85.82
70304;BME280;57712;48.752;11.348;2022-09-03T16:50:27;97332.09;;;18.64;85.39
70304;BME280;57712;48.752;11.348;2022-09-03T16:56:01;97346.63;;;18.59;88.97
70304;BME280;57712;48.752;11.348;2022-09-03T17:09:29;97330.97;;;18.71;82.91